createdAt,value
2018-10-06T00:01:02.718Z,14.40
2018-10-06T00:03:32.239Z,14.40
2018-10-06T00:06:01.696Z,14.30
2018-10-06T00:08:31.484Z,14.20
2018-10-06T00:11:00.701Z,14.10
2018-10-06T00:13:30.089Z,14.00
2018-10-06T00:16:02.767Z,14.00
2018-10-06T00:18:48.843Z,13.90
2018-10-06T00:21:27.430Z,13.90
2018-10-06T00:24:14.741Z,13.90
2018-10-06T00:26:57.286Z,13.90
2018-10-06T00:29:28.245Z,13.90
2018-10-06T00:31:57.672Z,13.80
2018-10-06T00:34:27.415Z,13.70
2018-10-06T00:36:59.339Z,13.70
2018-10-06T00:39:29.001Z,13.70
2018-10-06T00:42:00.937Z,13.70
2018-10-06T00:44:30.174Z,13.70
2018-10-06T00:47:00.339Z,13.70
2018-10-06T00:49:34.472Z,13.70
2018-10-06T00:52:06.098Z,13.60
2018-10-06T00:54:41.826Z,13.60
2018-10-06T00:57:14.742Z,13.60
2018-10-06T00:59:54.552Z,13.50
2018-10-06T01:02:46.193Z,13.50
2018-10-06T01:05:19.753Z,13.50
2018-10-06T01:07:49.752Z,13.50
2018-10-06T01:10:20.742Z,13.50
2018-10-06T01:13:10.436Z,13.50
2018-10-06T01:15:56.658Z,13.50
2018-10-06T01:18:29.307Z,13.50
2018-10-06T01:21:00.895Z,13.50
2018-10-06T01:23:44.269Z,13.40
2018-10-06T01:26:15.042Z,13.40
2018-10-06T01:28:54.265Z,13.30
2018-10-06T01:31:25.687Z,13.30
2018-10-06T01:34:04.086Z,13.30
2018-10-06T01:36:35.911Z,13.30
2018-10-06T01:39:07.742Z,13.20
2018-10-06T01:41:37.130Z,13.10
2018-10-06T01:44:09.441Z,13.10
2018-10-06T01:46:41.856Z,13.10
2018-10-06T01:49:15.065Z,13.00
2018-10-06T01:51:45.184Z,13.00
2018-10-06T01:54:16.915Z,13.00
2018-10-06T01:56:48.111Z,12.90
2018-10-06T01:59:17.662Z,12.90
2018-10-06T02:01:47.138Z,12.90
2018-10-06T02:04:16.494Z,12.90
2018-10-06T02:06:46.063Z,12.90
2018-10-06T02:09:15.213Z,12.90
2018-10-06T02:11:44.747Z,12.90
2018-10-06T02:14:14.951Z,12.90
2018-10-06T02:16:44.942Z,12.90
2018-10-06T02:19:14.103Z,12.90
2018-10-06T02:21:43.469Z,12.90
2018-10-06T02:24:12.658Z,12.90
2018-10-06T02:26:43.704Z,12.90
2018-10-06T02:29:12.871Z,12.80
2018-10-06T02:31:42.626Z,12.80
2018-10-06T02:34:12.595Z,12.70
2018-10-06T02:36:41.623Z,12.70
2018-10-06T02:39:11.969Z,12.70
2018-10-06T02:41:41.170Z,12.70
2018-10-06T02:44:10.592Z,12.60
2018-10-06T02:46:40.290Z,12.70
2018-10-06T02:49:11.860Z,12.60
2018-10-06T02:51:41.037Z,12.60
2018-10-06T02:54:10.201Z,12.70
2018-10-06T02:56:39.408Z,12.70
2018-10-06T02:59:08.862Z,12.60
2018-10-06T03:01:45.457Z,12.60
2018-10-06T03:04:27.510Z,12.60
2018-10-06T03:06:56.625Z,12.60
2018-10-06T03:09:26.200Z,12.60
2018-10-06T03:11:55.207Z,12.60
2018-10-06T03:14:25.129Z,12.60
2018-10-06T03:16:55.552Z,12.60
2018-10-06T03:19:24.773Z,12.50
2018-10-06T03:21:54.083Z,12.50
2018-10-06T03:24:23.182Z,12.50
2018-10-06T03:26:52.358Z,12.50
2018-10-06T03:29:21.764Z,12.50
2018-10-06T03:31:51.176Z,12.50
2018-10-06T03:34:21.348Z,12.40
2018-10-06T03:36:50.820Z,12.40
2018-10-06T03:39:19.922Z,12.40
2018-10-06T03:41:49.030Z,12.40
2018-10-06T03:44:18.086Z,12.40
2018-10-06T03:47:50.175Z,12.30
2018-10-06T03:50:19.937Z,12.30
2018-10-06T03:52:49.057Z,12.30
2018-10-06T03:55:18.323Z,12.30
2018-10-06T03:57:48.168Z,12.30
2018-10-06T04:00:17.571Z,12.20
2018-10-06T04:02:47.506Z,12.20
2018-10-06T04:05:16.715Z,12.20
2018-10-06T04:07:46.339Z,12.20
2018-10-06T04:10:16.163Z,12.20
2018-10-06T04:12:45.994Z,12.20
2018-10-06T04:15:15.075Z,12.10
2018-10-06T04:17:44.332Z,12.10
2018-10-06T04:20:13.417Z,12.10
2018-10-06T04:22:42.771Z,12.10
2018-10-06T04:25:11.707Z,12.00
2018-10-06T04:27:40.750Z,12.00
2018-10-06T04:30:11.009Z,12.00
2018-10-06T04:32:40.919Z,12.00
2018-10-06T04:35:10.198Z,12.00
2018-10-06T04:37:39.238Z,12.00
2018-10-06T04:40:08.294Z,12.00
2018-10-06T04:42:37.469Z,11.90
2018-10-06T04:45:06.623Z,11.90
2018-10-06T04:47:35.971Z,12.00
2018-10-06T04:50:05.626Z,12.00
2018-10-06T04:52:34.702Z,12.00
2018-10-06T04:55:03.968Z,12.00
2018-10-06T04:57:33.157Z,11.90
2018-10-06T05:00:02.419Z,11.90
2018-10-06T05:02:31.390Z,11.90
2018-10-06T05:05:14.850Z,11.90
2018-10-06T05:07:43.877Z,11.90
2018-10-06T05:10:12.902Z,11.90
2018-10-06T05:12:42.368Z,11.90
2018-10-06T05:15:11.410Z,11.90
2018-10-06T05:17:43.047Z,11.80
2018-10-06T05:20:12.104Z,11.90
2018-10-06T05:22:41.124Z,11.90
2018-10-06T05:25:10.537Z,11.90
2018-10-06T05:27:39.429Z,11.90
2018-10-06T05:30:08.359Z,11.80
2018-10-06T05:32:37.509Z,11.80
2018-10-06T05:35:06.597Z,11.80
2018-10-06T05:37:37.604Z,11.80
2018-10-06T05:40:07.104Z,11.80
2018-10-06T05:42:36.313Z,11.80
2018-10-06T05:45:07.312Z,11.80
2018-10-06T05:47:37.648Z,11.80
2018-10-06T05:50:07.511Z,11.80
2018-10-06T05:52:37.290Z,11.80
2018-10-06T05:55:06.402Z,11.80
2018-10-06T05:57:35.379Z,11.80
2018-10-06T06:00:04.497Z,11.80
2018-10-06T06:02:33.578Z,11.80
2018-10-06T06:05:02.642Z,11.80
2018-10-06T06:07:31.690Z,11.80
2018-10-06T06:10:02.316Z,11.80
2018-10-06T06:12:31.587Z,11.90
2018-10-06T06:15:00.954Z,11.90
2018-10-06T06:17:30.110Z,11.90
2018-10-06T06:19:59.556Z,11.90
2018-10-06T06:22:28.684Z,12.00
2018-10-06T06:24:58.821Z,12.00
2018-10-06T06:27:49.082Z,12.10
2018-10-06T06:30:25.227Z,12.10
2018-10-06T06:32:54.291Z,12.10
2018-10-06T06:35:24.033Z,12.10
2018-10-06T06:37:56.178Z,12.20
2018-10-06T06:40:25.616Z,12.20
2018-10-06T06:43:17.844Z,12.20
2018-10-06T06:45:52.437Z,12.30
2018-10-06T06:48:22.246Z,12.30
2018-10-06T06:50:51.520Z,12.40
2018-10-06T06:53:21.570Z,12.40
2018-10-06T06:55:51.993Z,12.50
2018-10-06T06:58:21.996Z,12.60
2018-10-06T07:01:05.977Z,12.60
2018-10-06T07:03:43.772Z,12.60
2018-10-06T07:06:13.808Z,12.70
2018-10-06T07:08:43.400Z,12.70
2018-10-06T07:11:12.938Z,12.80
2018-10-06T07:13:43.619Z,12.80
2018-10-06T07:16:14.857Z,12.90
2018-10-06T07:18:44.660Z,13.10
2018-10-06T07:21:14.898Z,13.10
2018-10-06T07:23:44.341Z,13.30
2018-10-06T07:26:13.638Z,13.40
2018-10-06T07:28:43.068Z,13.50
2018-10-06T07:31:12.378Z,13.60
2018-10-06T07:33:41.603Z,13.60
2018-10-06T07:36:11.248Z,13.70
2018-10-06T07:38:40.805Z,13.80
2018-10-06T07:41:10.532Z,13.80
2018-10-06T07:43:40.790Z,13.90
2018-10-06T07:46:11.579Z,14.00
2018-10-06T07:48:41.967Z,14.10
2018-10-06T07:51:11.496Z,14.10
2018-10-06T07:53:41.537Z,14.20
2018-10-06T07:56:12.603Z,14.30
2018-10-06T07:58:46.201Z,14.40
2018-10-06T08:01:16.860Z,14.40
2018-10-06T08:04:01.497Z,14.60
2018-10-06T08:06:31.713Z,14.70
2018-10-06T08:09:01.713Z,14.80
2018-10-06T08:11:31.823Z,14.90
2018-10-06T08:14:01.460Z,15.00
2018-10-06T08:16:31.455Z,15.10
2018-10-06T08:20:31.240Z,15.20
2018-10-06T08:23:03.765Z,15.30
2018-10-06T08:25:34.396Z,15.40
2018-10-06T08:28:05.673Z,15.50
2018-10-06T08:30:36.452Z,15.60
2018-10-06T08:33:05.773Z,15.70
2018-10-06T08:35:35.808Z,15.80
2018-10-06T08:38:05.099Z,15.90
2018-10-06T08:40:34.820Z,16.00
2018-10-06T08:43:06.317Z,16.10
2018-10-06T08:45:36.347Z,16.10
2018-10-06T08:48:06.510Z,16.20
2018-10-06T08:50:36.265Z,16.40
2018-10-06T08:54:12.263Z,16.40
2018-10-06T08:56:46.236Z,16.60
2018-10-06T08:59:20.259Z,16.70
2018-10-06T09:01:50.973Z,16.80
2018-10-06T09:04:20.640Z,16.90
2018-10-06T09:06:51.692Z,17.00
2018-10-06T09:09:21.087Z,17.10
2018-10-06T09:11:51.964Z,17.20
2018-10-06T09:14:26.266Z,17.30
2018-10-06T09:17:29.492Z,17.40
2018-10-06T09:19:59.601Z,17.50
2018-10-06T09:22:32.134Z,17.60
2018-10-06T09:25:02.362Z,17.70
2018-10-06T09:27:32.263Z,17.80
2018-10-06T09:30:02.586Z,17.80
2018-10-06T09:32:32.699Z,18.10
2018-10-06T09:35:02.709Z,18.20
2018-10-06T09:37:34.900Z,18.60
2018-10-06T09:40:05.114Z,19.40
2018-10-06T09:42:42.806Z,20.60
2018-10-06T09:45:14.336Z,21.80
2018-10-06T09:47:45.192Z,22.90
2018-10-06T09:50:19.924Z,23.70
2018-10-06T09:53:05.048Z,25.10
2018-10-06T09:55:36.578Z,25.10
2018-10-06T09:58:09.220Z,25.50
2018-10-06T10:00:52.752Z,25.90
2018-10-06T10:03:42.236Z,26.20
2018-10-06T10:06:14.323Z,26.80
2018-10-06T10:08:50.157Z,26.80
2018-10-06T10:11:20.707Z,26.60
2018-10-06T10:13:50.508Z,27.10
2018-10-06T10:16:30.735Z,27.50
2018-10-06T10:19:00.683Z,28.30
2018-10-06T10:21:32.800Z,28.00
2018-10-06T10:24:02.792Z,27.70
2018-10-06T10:26:38.020Z,28.70
2018-10-06T10:29:10.466Z,29.60
2018-10-06T10:31:52.281Z,29.90
2018-10-06T10:34:23.935Z,30.20
2018-10-06T10:37:03.824Z,30.50
2018-10-06T10:39:37.728Z,30.40
2018-10-06T10:42:09.846Z,30.60
2018-10-06T10:44:40.324Z,31.10
2018-10-06T10:47:16.782Z,31.30
2018-10-06T10:49:47.815Z,30.70
2018-10-06T10:52:19.385Z,30.70
2018-10-06T10:54:52.972Z,30.50
2018-10-06T10:57:30.249Z,30.90
2018-10-06T11:03:10.193Z,30.20
2018-10-06T11:05:45.480Z,30.10
2018-10-06T11:08:22.196Z,29.80
2018-10-06T11:10:54.321Z,30.30
2018-10-06T11:13:26.653Z,30.70
2018-10-06T11:15:59.030Z,30.50
2018-10-06T11:18:30.345Z,30.20
2018-10-06T11:22:06.036Z,30.90
2018-10-06T11:27:14.910Z,32.10
2018-10-06T11:29:47.321Z,32.40
2018-10-06T11:32:18.694Z,31.90
2018-10-06T11:34:49.563Z,31.50
2018-10-06T11:37:20.595Z,31.90
2018-10-06T11:39:50.593Z,33.10
2018-10-06T11:42:21.489Z,32.60
2018-10-06T11:44:52.269Z,32.10
2018-10-06T11:47:24.332Z,31.90
2018-10-06T11:50:01.955Z,31.90
2018-10-06T11:55:15.099Z,31.90
2018-10-06T11:57:46.018Z,32.10
2018-10-06T12:00:15.966Z,32.30
2018-10-06T12:02:46.808Z,33.00
2018-10-06T12:08:01.166Z,32.30
2018-10-06T12:10:32.361Z,31.70
2018-10-06T12:13:01.715Z,31.20
2018-10-06T12:15:35.459Z,31.10
2018-10-06T12:18:08.594Z,31.60
2018-10-06T12:20:53.814Z,31.50
2018-10-06T12:23:44.040Z,31.40
2018-10-06T12:26:18.536Z,31.40
2018-10-06T12:29:12.104Z,31.00
2018-10-06T12:32:10.545Z,31.00
2018-10-06T12:34:48.411Z,30.90
2018-10-06T12:37:30.678Z,30.50
2018-10-06T12:40:09.010Z,30.50
2018-10-06T12:42:43.445Z,30.80
2018-10-06T12:45:14.502Z,31.20
2018-10-06T12:47:46.629Z,30.30
2018-10-06T12:50:18.718Z,30.10
2018-10-06T12:52:50.396Z,30.30
2018-10-06T12:55:20.283Z,30.80
2018-10-06T12:57:50.312Z,31.50
2018-10-06T13:00:22.671Z,32.60
2018-10-06T13:02:53.295Z,32.60
2018-10-06T13:05:23.354Z,32.20
2018-10-06T13:07:55.757Z,32.00
2018-10-06T13:10:25.305Z,32.80
2018-10-06T13:12:54.794Z,33.70
2018-10-06T13:15:24.180Z,34.50
2018-10-06T13:17:55.025Z,34.50
2018-10-06T13:20:26.103Z,34.70
2018-10-06T13:22:57.547Z,34.40
2018-10-06T13:25:28.897Z,33.90
2018-10-06T13:28:02.378Z,34.00
2018-10-06T13:30:35.208Z,34.60
2018-10-06T13:33:04.715Z,34.50
2018-10-06T13:35:35.912Z,34.20
2018-10-06T13:38:08.220Z,33.90
2018-10-06T13:40:40.360Z,34.00
2018-10-06T13:43:31.443Z,33.80
2018-10-06T13:46:06.351Z,33.70
2018-10-06T13:48:49.235Z,33.00
2018-10-06T13:51:20.421Z,32.60
2018-10-06T13:53:50.590Z,31.90
2018-10-06T13:56:21.454Z,31.60
2018-10-06T13:58:53.130Z,31.00
2018-10-06T14:01:24.561Z,31.30
2018-10-06T14:03:54.784Z,31.30
2018-10-06T14:06:28.528Z,31.00
2018-10-06T14:09:01.495Z,30.70
2018-10-06T14:11:32.214Z,29.90
2018-10-06T14:14:08.566Z,28.90
2018-10-06T14:16:39.267Z,28.40
2018-10-06T14:19:10.663Z,27.70
2018-10-06T14:21:50.158Z,27.50
2018-10-06T14:24:20.588Z,27.20
2018-10-06T14:26:53.232Z,27.10
2018-10-06T14:29:27.202Z,27.10
2018-10-06T14:31:59.142Z,27.10
2018-10-06T14:34:37.980Z,27.10
2018-10-06T14:37:14.851Z,27.10
2018-10-06T14:40:01.292Z,27.00
2018-10-06T14:42:40.226Z,27.00
2018-10-06T14:45:14.637Z,26.90
2018-10-06T14:47:48.553Z,26.90
2018-10-06T14:50:25.711Z,26.70
2018-10-06T14:52:58.304Z,26.80
2018-10-06T14:55:30.840Z,26.70
2018-10-06T14:58:05.913Z,26.50
2018-10-06T15:00:36.428Z,26.40
2018-10-06T15:03:09.198Z,26.30
2018-10-06T15:05:40.052Z,26.30
2018-10-06T15:08:12.353Z,26.30
2018-10-06T15:10:44.158Z,26.20
2018-10-06T15:13:15.100Z,26.20
2018-10-06T15:15:57.314Z,26.10
2018-10-06T15:18:28.957Z,26.00
2018-10-06T15:21:01.536Z,26.00
2018-10-06T15:23:34.321Z,25.90
2018-10-06T15:26:07.285Z,25.80
2018-10-06T15:28:37.278Z,25.70
2018-10-06T15:31:19.094Z,25.60
2018-10-06T15:34:06.401Z,25.60
2018-10-06T15:36:39.795Z,25.60
2018-10-06T15:39:12.886Z,25.50
2018-10-06T15:41:44.678Z,25.50
2018-10-06T15:44:15.707Z,25.40
2018-10-06T15:46:51.793Z,25.40
2018-10-06T15:49:32.991Z,25.40
2018-10-06T15:52:05.179Z,25.30
2018-10-06T15:54:37.751Z,25.30
2018-10-06T15:57:26.786Z,25.20
2018-10-06T15:59:57.268Z,25.20
2018-10-06T16:02:28.092Z,25.20
2018-10-06T16:05:14.320Z,25.10
2018-10-06T16:07:45.876Z,25.00
2018-10-06T16:10:17.869Z,24.90
2018-10-06T16:12:50.233Z,24.90
2018-10-06T16:15:20.200Z,24.80
2018-10-06T16:17:50.715Z,24.70
2018-10-06T16:20:22.346Z,24.70
2018-10-06T16:22:58.528Z,24.60
2018-10-06T16:25:35.436Z,24.50
2018-10-06T16:28:15.201Z,24.50
2018-10-06T16:30:47.762Z,24.40
2018-10-06T16:33:20.632Z,24.40
2018-10-06T16:35:51.346Z,24.30
2018-10-06T16:38:24.590Z,24.20
2018-10-06T16:40:56.996Z,24.10
2018-10-06T16:43:42.617Z,24.00
2018-10-06T16:46:22.821Z,23.90
2018-10-06T16:52:02.209Z,23.80
2018-10-06T16:58:21.285Z,23.70
2018-10-06T17:00:53.971Z,23.60
2018-10-06T17:03:26.174Z,23.60
2018-10-06T17:06:03.823Z,23.50
2018-10-06T17:08:37.611Z,23.50
2018-10-06T17:11:14.041Z,23.40
2018-10-06T17:13:50.369Z,23.40
2018-10-06T17:16:34.191Z,23.40
2018-10-06T17:19:07.838Z,23.30
2018-10-06T17:21:41.883Z,23.30
2018-10-06T17:27:06.150Z,23.30
2018-10-06T17:29:36.400Z,23.20
2018-10-06T17:32:09.493Z,23.20
2018-10-06T17:34:57.893Z,23.20
2018-10-06T17:38:06.673Z,23.20
2018-10-06T17:40:43.310Z,23.10
2018-10-06T17:43:16.085Z,23.10
2018-10-06T17:45:53.545Z,23.10
2018-10-06T17:48:24.346Z,23.00
2018-10-06T17:50:58.757Z,22.90
2018-10-06T17:53:30.735Z,22.80
2018-10-06T17:56:02.225Z,22.80
2018-10-06T17:58:33.775Z,22.80
2018-10-06T18:01:25.286Z,22.80
2018-10-06T18:04:10.011Z,22.70
2018-10-06T18:06:43.239Z,22.60
2018-10-06T18:09:15.145Z,22.60
2018-10-06T18:11:46.649Z,22.50
2018-10-06T18:14:16.876Z,22.40
2018-10-06T18:17:07.149Z,22.50
2018-10-06T18:19:40.951Z,22.40
2018-10-06T18:22:15.069Z,22.40
2018-10-06T18:24:49.979Z,22.30
2018-10-06T18:27:40.859Z,22.20
2018-10-06T18:30:20.619Z,22.20
2018-10-06T18:32:59.411Z,22.20
2018-10-06T18:35:39.822Z,22.10
2018-10-06T18:38:25.869Z,22.00
2018-10-06T18:41:02.255Z,22.10
2018-10-06T18:43:34.948Z,22.10
2018-10-06T18:46:15.766Z,22.10
2018-10-06T18:49:00.463Z,22.00
2018-10-06T18:55:27.617Z,21.90
2018-10-06T18:57:59.449Z,21.90
2018-10-06T19:00:58.134Z,21.80
2018-10-06T19:03:30.461Z,21.80
2018-10-06T19:06:00.660Z,21.80
2018-10-06T19:08:55.721Z,21.90
2018-10-06T19:11:51.092Z,21.90
2018-10-06T19:14:39.228Z,21.80
2018-10-06T19:17:22.415Z,21.90
2018-10-06T19:19:55.190Z,21.90
2018-10-06T19:22:25.944Z,21.90
2018-10-06T19:24:56.705Z,21.70
2018-10-06T19:27:31.307Z,21.70
2018-10-06T19:30:08.276Z,21.70
2018-10-06T19:32:44.040Z,21.60
2018-10-06T19:35:15.303Z,21.60
2018-10-06T19:37:48.391Z,21.60
2018-10-06T19:40:18.707Z,21.60
2018-10-06T19:42:49.364Z,21.60
2018-10-06T19:45:36.085Z,21.70
2018-10-06T19:48:07.338Z,21.60
2018-10-06T19:50:42.201Z,21.60
2018-10-06T19:53:14.665Z,21.50
2018-10-06T19:56:21.622Z,21.40
2018-10-06T19:58:52.750Z,21.30
2018-10-06T20:01:30.657Z,21.20
2018-10-06T20:06:52.170Z,21.10
2018-10-06T20:09:27.811Z,21.00
2018-10-06T20:12:06.056Z,20.90
2018-10-06T20:14:45.360Z,21.00
2018-10-06T20:17:22.955Z,20.90
2018-10-06T20:22:48.620Z,20.70
2018-10-06T20:33:42.748Z,20.70
2018-10-06T20:36:26.565Z,20.70
2018-10-06T20:39:02.722Z,20.50
2018-10-06T20:41:50.520Z,20.30
2018-10-06T20:44:23.705Z,20.20
2018-10-06T20:46:55.435Z,20.20
2018-10-06T20:49:43.505Z,20.20
2018-10-06T20:52:29.284Z,20.10
2018-10-06T20:55:30.123Z,20.00
2018-10-06T20:58:04.333Z,20.10
2018-10-06T21:00:42.231Z,20.20
2018-10-06T21:03:23.436Z,20.10
2018-10-06T21:06:07.559Z,20.00
2018-10-06T21:08:52.551Z,20.00
2018-10-06T21:11:32.662Z,20.00
2018-10-06T21:14:19.071Z,20.00
2018-10-06T21:17:12.792Z,20.00
2018-10-06T21:20:37.610Z,19.90
2018-10-06T21:23:13.952Z,19.90
2018-10-06T21:25:46.741Z,19.90
2018-10-06T21:28:20.683Z,19.90
2018-10-06T21:31:14.483Z,19.90
2018-10-06T21:33:56.169Z,19.80
2018-10-06T21:36:29.039Z,19.70
2018-10-06T21:39:02.349Z,19.70
2018-10-06T21:41:41.076Z,19.70
2018-10-06T21:44:16.156Z,19.80
2018-10-06T21:47:12.817Z,19.70
2018-10-06T21:49:55.384Z,19.70
2018-10-06T21:52:36.102Z,19.60
2018-10-06T21:55:18.902Z,19.40
2018-10-06T21:57:56.768Z,19.40
2018-10-06T22:00:26.710Z,19.30
2018-10-06T22:02:59.271Z,19.40
2018-10-06T22:05:36.089Z,19.40
2018-10-06T22:08:05.993Z,19.30
2018-10-06T22:10:44.372Z,19.20
2018-10-06T22:13:21.530Z,19.10
2018-10-06T22:15:52.104Z,19.20
2018-10-06T22:18:24.252Z,19.30
2018-10-06T22:20:57.701Z,19.10
2018-10-06T22:23:28.534Z,19.00
2018-10-06T22:25:58.999Z,18.90
2018-10-06T22:28:30.110Z,19.00
2018-10-06T22:31:01.493Z,19.10
2018-10-06T22:33:31.306Z,18.90
2018-10-06T22:36:02.332Z,19.00
2018-10-06T22:38:32.415Z,19.10
2018-10-06T22:41:04.436Z,18.80
2018-10-06T22:43:37.286Z,18.70
2018-10-06T22:46:14.140Z,18.50
2018-10-06T22:48:50.932Z,18.50
2018-10-06T22:51:28.694Z,18.60
2018-10-06T22:54:12.084Z,18.60
2018-10-06T22:56:47.122Z,18.50
2018-10-06T22:59:21.685Z,18.30
2018-10-06T23:02:05.030Z,18.10
2018-10-06T23:04:39.568Z,18.10
2018-10-06T23:07:13.067Z,18.00
2018-10-06T23:09:47.978Z,17.90
2018-10-06T23:12:31.872Z,17.80
2018-10-06T23:15:07.061Z,17.70
2018-10-06T23:17:56.275Z,17.70
2018-10-06T23:20:27.800Z,17.60
2018-10-06T23:22:59.693Z,17.60
2018-10-06T23:25:33.570Z,17.30
2018-10-06T23:31:10.717Z,17.10
2018-10-06T23:33:40.392Z,17.10
2018-10-06T23:36:12.532Z,17.10
2018-10-06T23:38:46.369Z,17.00
2018-10-06T23:41:16.813Z,17.00
2018-10-06T23:43:48.506Z,17.00
2018-10-06T23:46:18.130Z,16.90
2018-10-06T23:48:54.303Z,16.80
2018-10-06T23:51:29.002Z,16.80
2018-10-06T23:53:58.323Z,16.70
2018-10-06T23:56:27.669Z,16.70
2018-10-06T23:59:03.499Z,16.70
